Aurora, Indiana
Current Conditions -  °F | °C
As of 2:52 PM on Saturday 20 Dec 2014 (Local Time) from KCVG Reporting Station
Haze Haze  
Wind Chill: 32°   Ceiling: 1500
Heat Index: 32°   Visibility: 6mi
Dew Point: 24°   Wind: 0mph
Humidity: 73%   Direction: NA
Pressure: 30.24"   Gusts: NA
Location:  39.06°N, 84.9°W
Report Text: KCVG 201952Z 00000KT 6SM HZ OVC015 00/M04 A3024 RMK AO2 SLP248 T00001044
Loading
Personal Weather Stations






























Interactive Weather Map New forecast layout! Learn more

10-Day Weather Forecast

Advertisements
Track Severe Weather on mobile